sensor_id;sensor_type;location;lat;lon;timestamp;temperature;humidity
4399;DHT22;2213;49.720;7.296;2023-06-22T00:00:37;23.00;99.90
4399;DHT22;2213;49.720;7.296;2023-06-22T00:03:06;22.90;99.90
4399;DHT22;2213;49.720;7.296;2023-06-22T00:05:35;22.80;99.90
4399;DHT22;2213;49.720;7.296;2023-06-22T00:08:05;22.70;99.90
4399;DHT22;2213;49.720;7.296;2023-06-22T00:10:33;22.60;99.90
4399;DHT22;2213;49.720;7.296;2023-06-22T00:13:03;22.50;99.90
4399;DHT22;2213;49.720;7.296;2023-06-22T00:15:34;22.40;99.90
4399;DHT22;2213;49.720;7.296;2023-06-22T00:18:04;22.40;99.90
4399;DHT22;2213;49.720;7.296;2023-06-22T00:20:34;22.40;99.90
4399;DHT22;2213;49.720;7.296;2023-06-22T00:23:05;22.40;99.90
4399;DHT22;2213;49.720;7.296;2023-06-22T00:25:35;22.40;99.90
4399;DHT22;2213;49.720;7.296;2023-06-22T00:28:06;22.50;99.90
4399;DHT22;2213;49.720;7.296;2023-06-22T00:30:37;22.40;99.90
4399;DHT22;2213;49.720;7.296;2023-06-22T00:33:06;22.40;99.90
4399;DHT22;2213;49.720;7.296;2023-06-22T00:35:35;22.30;99.90
4399;DHT22;2213;49.720;7.296;2023-06-22T00:38:04;22.30;99.90
4399;DHT22;2213;49.720;7.296;2023-06-22T00:40:33;22.30;99.90
4399;DHT22;2213;49.720;7.296;2023-06-22T00:43:02;22.20;99.90
4399;DHT22;2213;49.720;7.296;2023-06-22T00:45:32;22.20;99.90
4399;DHT22;2213;49.720;7.296;2023-06-22T00:48:03;22.20;99.90
4399;DHT22;2213;49.720;7.296;2023-06-22T00:50:35;22.20;99.90
4399;DHT22;2213;49.720;7.296;2023-06-22T00:53:06;22.20;99.90
4399;DHT22;2213;49.720;7.296;2023-06-22T00:55:37;22.10;99.90
4399;DHT22;2213;49.720;7.296;2023-06-22T00:58:10;22.10;99.90
4399;DHT22;2213;49.720;7.296;2023-06-22T01:00:40;22.10;99.90
4399;DHT22;2213;49.720;7.296;2023-06-22T01:03:11;22.00;99.90
4399;DHT22;2213;49.720;7.296;2023-06-22T01:05:40;22.00;99.90
4399;DHT22;2213;49.720;7.296;2023-06-22T01:08:23;22.00;99.90
4399;DHT22;2213;49.720;7.296;2023-06-22T01:11:01;21.90;99.90
4399;DHT22;2213;49.720;7.296;2023-06-22T01:13:41;21.90;99.90
4399;DHT22;2213;49.720;7.296;2023-06-22T01:16:20;21.90;99.90
4399;DHT22;2213;49.720;7.296;2023-06-22T01:18:57;21.90;99.90
4399;DHT22;2213;49.720;7.296;2023-06-22T01:21:31;21.80;99.90
4399;DHT22;2213;49.720;7.296;2023-06-22T01:24:11;21.80;99.90
4399;DHT22;2213;49.720;7.296;2023-06-22T01:27:00;21.80;99.90
4399;DHT22;2213;49.720;7.296;2023-06-22T01:29:40;21.80;99.90
4399;DHT22;2213;49.720;7.296;2023-06-22T01:32:11;21.80;99.90
4399;DHT22;2213;49.720;7.296;2023-06-22T01:34:42;21.70;99.90
4399;DHT22;2213;49.720;7.296;2023-06-22T01:37:12;21.70;99.90
4399;DHT22;2213;49.720;7.296;2023-06-22T01:39:42;21.70;99.90
4399;DHT22;2213;49.720;7.296;2023-06-22T01:42:12;21.70;99.90
4399;DHT22;2213;49.720;7.296;2023-06-22T01:44:42;21.70;99.90
4399;DHT22;2213;49.720;7.296;2023-06-22T01:47:12;21.70;99.90
4399;DHT22;2213;49.720;7.296;2023-06-22T01:49:42;21.60;99.90
4399;DHT22;2213;49.720;7.296;2023-06-22T01:52:11;21.60;99.90
4399;DHT22;2213;49.720;7.296;2023-06-22T01:54:40;21.60;99.90
4399;DHT22;2213;49.720;7.296;2023-06-22T01:57:08;21.60;99.90
4399;DHT22;2213;49.720;7.296;2023-06-22T01:59:46;21.50;99.90
4399;DHT22;2213;49.720;7.296;2023-06-22T02:02:20;21.50;99.90
4399;DHT22;2213;49.720;7.296;2023-06-22T02:04:59;21.50;99.90
4399;DHT22;2213;49.720;7.296;2023-06-22T02:07:41;21.50;99.90
4399;DHT22;2213;49.720;7.296;2023-06-22T02:10:14;21.50;99.90
4399;DHT22;2213;49.720;7.296;2023-06-22T02:12:44;21.50;99.90
4399;DHT22;2213;49.720;7.296;2023-06-22T02:15:17;21.50;99.90
4399;DHT22;2213;49.720;7.296;2023-06-22T02:17:46;21.50;99.90
4399;DHT22;2213;49.720;7.296;2023-06-22T02:20:16;21.40;99.90
4399;DHT22;2213;49.720;7.296;2023-06-22T02:22:44;21.40;99.90
4399;DHT22;2213;49.720;7.296;2023-06-22T02:25:13;21.40;99.90
4399;DHT22;2213;49.720;7.296;2023-06-22T02:27:43;21.40;99.90
4399;DHT22;2213;49.720;7.296;2023-06-22T02:30:15;21.40;99.90
4399;DHT22;2213;49.720;7.296;2023-06-22T02:32:45;21.40;99.90
4399;DHT22;2213;49.720;7.296;2023-06-22T02:35:15;21.40;99.90
4399;DHT22;2213;49.720;7.296;2023-06-22T02:37:45;21.40;99.90
4399;DHT22;2213;49.720;7.296;2023-06-22T02:40:13;21.40;99.90
4399;DHT22;2213;49.720;7.296;2023-06-22T02:42:42;21.30;99.90
4399;DHT22;2213;49.720;7.296;2023-06-22T02:45:12;21.40;99.90
4399;DHT22;2213;49.720;7.296;2023-06-22T02:47:42;21.40;99.90
4399;DHT22;2213;49.720;7.296;2023-06-22T02:50:11;21.40;99.90
4399;DHT22;2213;49.720;7.296;2023-06-22T02:52:40;21.30;99.90
4399;DHT22;2213;49.720;7.296;2023-06-22T02:55:09;21.30;99.90
4399;DHT22;2213;49.720;7.296;2023-06-22T02:57:37;21.30;99.90
4399;DHT22;2213;49.720;7.296;2023-06-22T03:00:13;21.30;99.90
4399;DHT22;2213;49.720;7.296;2023-06-22T03:02:47;21.30;99.90
4399;DHT22;2213;49.720;7.296;2023-06-22T03:05:17;21.30;99.90
4399;DHT22;2213;49.720;7.296;2023-06-22T03:07:46;21.30;99.90
4399;DHT22;2213;49.720;7.296;2023-06-22T03:10:15;21.30;99.90
4399;DHT22;2213;49.720;7.296;2023-06-22T03:12:44;21.30;99.90
4399;DHT22;2213;49.720;7.296;2023-06-22T03:15:13;21.20;99.90
4399;DHT22;2213;49.720;7.296;2023-06-22T03:17:41;21.20;99.90
4399;DHT22;2213;49.720;7.296;2023-06-22T03:20:12;21.20;99.90
4399;DHT22;2213;49.720;7.296;2023-06-22T03:22:41;21.20;99.90
4399;DHT22;2213;49.720;7.296;2023-06-22T03:25:13;21.20;99.90
4399;DHT22;2213;49.720;7.296;2023-06-22T03:27:42;21.10;99.90
4399;DHT22;2213;49.720;7.296;2023-06-22T03:30:12;21.20;99.90
4399;DHT22;2213;49.720;7.296;2023-06-22T03:32:41;21.10;99.90
4399;DHT22;2213;49.720;7.296;2023-06-22T03:35:12;21.10;99.90
4399;DHT22;2213;49.720;7.296;2023-06-22T03:37:44;21.10;99.90
4399;DHT22;2213;49.720;7.296;2023-06-22T03:40:13;21.00;99.90
4399;DHT22;2213;49.720;7.296;2023-06-22T03:42:41;21.00;99.90
4399;DHT22;2213;49.720;7.296;2023-06-22T03:45:10;21.00;99.90
4399;DHT22;2213;49.720;7.296;2023-06-22T03:47:39;21.00;99.90
4399;DHT22;2213;49.720;7.296;2023-06-22T03:50:08;21.00;99.90
4399;DHT22;2213;49.720;7.296;2023-06-22T03:52:39;20.90;99.90
4399;DHT22;2213;49.720;7.296;2023-06-22T03:55:10;20.90;99.90
4399;DHT22;2213;49.720;7.296;2023-06-22T03:57:39;20.90;99.90
4399;DHT22;2213;49.720;7.296;2023-06-22T04:00:09;20.90;99.90
4399;DHT22;2213;49.720;7.296;2023-06-22T04:02:38;20.90;99.90
4399;DHT22;2213;49.720;7.296;2023-06-22T04:05:09;20.90;99.90
4399;DHT22;2213;49.720;7.296;2023-06-22T04:07:39;20.80;99.90
4399;DHT22;2213;49.720;7.296;2023-06-22T04:10:08;20.80;99.90
4399;DHT22;2213;49.720;7.296;2023-06-22T04:12:39;20.80;99.90
4399;DHT22;2213;49.720;7.296;2023-06-22T04:15:08;20.70;99.90
4399;DHT22;2213;49.720;7.296;2023-06-22T04:17:39;20.70;99.90
4399;DHT22;2213;49.720;7.296;2023-06-22T04:20:10;20.70;99.90
4399;DHT22;2213;49.720;7.296;2023-06-22T04:22:41;20.70;99.90
4399;DHT22;2213;49.720;7.296;2023-06-22T04:25:10;20.70;99.90
4399;DHT22;2213;49.720;7.296;2023-06-22T04:27:39;20.70;99.90
4399;DHT22;2213;49.720;7.296;2023-06-22T04:30:09;20.70;99.90
4399;DHT22;2213;49.720;7.296;2023-06-22T04:32:39;20.70;99.90
4399;DHT22;2213;49.720;7.296;2023-06-22T04:35:08;20.60;99.90
4399;DHT22;2213;49.720;7.296;2023-06-22T04:37:38;20.60;99.90
4399;DHT22;2213;49.720;7.296;2023-06-22T04:40:09;20.60;99.90
4399;DHT22;2213;49.720;7.296;2023-06-22T04:42:42;20.60;99.90
4399;DHT22;2213;49.720;7.296;2023-06-22T04:45:20;20.60;99.90
4399;DHT22;2213;49.720;7.296;2023-06-22T04:47:51;20.60;99.90
4399;DHT22;2213;49.720;7.296;2023-06-22T04:50:20;20.60;99.90
4399;DHT22;2213;49.720;7.296;2023-06-22T04:52:50;20.60;99.90
4399;DHT22;2213;49.720;7.296;2023-06-22T04:55:21;20.60;99.90
4399;DHT22;2213;49.720;7.296;2023-06-22T04:57:49;20.60;99.90
4399;DHT22;2213;49.720;7.296;2023-06-22T05:00:19;20.60;99.90
4399;DHT22;2213;49.720;7.296;2023-06-22T05:02:50;20.60;99.90
4399;DHT22;2213;49.720;7.296;2023-06-22T05:05:29;20.60;99.90
4399;DHT22;2213;49.720;7.296;2023-06-22T05:08:00;20.60;99.90
4399;DHT22;2213;49.720;7.296;2023-06-22T05:10:31;20.70;99.90
4399;DHT22;2213;49.720;7.296;2023-06-22T05:13:00;20.70;99.90
4399;DHT22;2213;49.720;7.296;2023-06-22T05:15:29;20.70;99.90
4399;DHT22;2213;49.720;7.296;2023-06-22T05:18:03;20.70;99.90
4399;DHT22;2213;49.720;7.296;2023-06-22T05:20:33;20.70;99.90
4399;DHT22;2213;49.720;7.296;2023-06-22T05:23:04;20.80;99.90
4399;DHT22;2213;49.720;7.296;2023-06-22T05:25:34;20.80;99.90
4399;DHT22;2213;49.720;7.296;2023-06-22T05:28:03;20.80;99.90
4399;DHT22;2213;49.720;7.296;2023-06-22T05:30:37;20.80;99.90
4399;DHT22;2213;49.720;7.296;2023-06-22T05:33:06;20.80;99.90
4399;DHT22;2213;49.720;7.296;2023-06-22T05:35:35;20.90;99.90
4399;DHT22;2213;49.720;7.296;2023-06-22T05:38:04;20.90;99.90
4399;DHT22;2213;49.720;7.296;2023-06-22T05:40:34;20.90;99.90
4399;DHT22;2213;49.720;7.296;2023-06-22T05:43:02;21.00;99.90
4399;DHT22;2213;49.720;7.296;2023-06-22T05:45:31;21.00;99.90
4399;DHT22;2213;49.720;7.296;2023-06-22T05:48:00;21.10;99.90
4399;DHT22;2213;49.720;7.296;2023-06-22T05:50:29;21.00;99.90
4399;DHT22;2213;49.720;7.296;2023-06-22T05:52:58;21.10;99.90
4399;DHT22;2213;49.720;7.296;2023-06-22T05:55:27;21.10;99.90
4399;DHT22;2213;49.720;7.296;2023-06-22T05:57:57;21.10;99.90
4399;DHT22;2213;49.720;7.296;2023-06-22T06:00:25;21.20;99.90
4399;DHT22;2213;49.720;7.296;2023-06-22T06:02:56;21.20;99.90
4399;DHT22;2213;49.720;7.296;2023-06-22T06:05:31;21.30;99.90
4399;DHT22;2213;49.720;7.296;2023-06-22T06:08:01;21.30;99.90
4399;DHT22;2213;49.720;7.296;2023-06-22T06:10:33;21.30;99.90
4399;DHT22;2213;49.720;7.296;2023-06-22T06:13:05;21.30;99.90
4399;DHT22;2213;49.720;7.296;2023-06-22T06:15:34;21.30;99.90
4399;DHT22;2213;49.720;7.296;2023-06-22T06:18:03;21.40;99.90
4399;DHT22;2213;49.720;7.296;2023-06-22T06:20:33;21.40;99.90
4399;DHT22;2213;49.720;7.296;2023-06-22T06:23:02;21.40;99.90
4399;DHT22;2213;49.720;7.296;2023-06-22T06:25:31;21.50;99.90
4399;DHT22;2213;49.720;7.296;2023-06-22T06:27:59;21.60;99.90
4399;DHT22;2213;49.720;7.296;2023-06-22T06:30:29;21.60;99.90
4399;DHT22;2213;49.720;7.296;2023-06-22T06:32:59;21.70;99.90
4399;DHT22;2213;49.720;7.296;2023-06-22T06:35:28;21.70;99.90
4399;DHT22;2213;49.720;7.296;2023-06-22T06:37:57;21.70;99.90
4399;DHT22;2213;49.720;7.296;2023-06-22T06:40:26;21.80;99.90
4399;DHT22;2213;49.720;7.296;2023-06-22T06:42:56;21.90;99.90
4399;DHT22;2213;49.720;7.296;2023-06-22T06:45:26;21.90;99.90
4399;DHT22;2213;49.720;7.296;2023-06-22T06:47:57;21.90;99.90
4399;DHT22;2213;49.720;7.296;2023-06-22T06:50:26;21.90;99.90
4399;DHT22;2213;49.720;7.296;2023-06-22T06:52:57;22.00;99.90
4399;DHT22;2213;49.720;7.296;2023-06-22T06:55:26;22.00;99.90
4399;DHT22;2213;49.720;7.296;2023-06-22T06:57:57;22.00;99.90
4399;DHT22;2213;49.720;7.296;2023-06-22T07:00:26;22.00;99.90
4399;DHT22;2213;49.720;7.296;2023-06-22T07:02:57;22.10;99.90
4399;DHT22;2213;49.720;7.296;2023-06-22T07:05:25;22.10;99.90
4399;DHT22;2213;49.720;7.296;2023-06-22T07:07:54;22.20;99.90
4399;DHT22;2213;49.720;7.296;2023-06-22T07:10:22;22.20;99.90
4399;DHT22;2213;49.720;7.296;2023-06-22T07:12:51;22.20;99.90
4399;DHT22;2213;49.720;7.296;2023-06-22T07:15:19;22.30;99.90
4399;DHT22;2213;49.720;7.296;2023-06-22T07:17:49;22.30;99.90
4399;DHT22;2213;49.720;7.296;2023-06-22T07:20:19;22.40;99.90
4399;DHT22;2213;49.720;7.296;2023-06-22T07:22:48;22.40;99.90
4399;DHT22;2213;49.720;7.296;2023-06-22T07:25:16;22.50;99.90
4399;DHT22;2213;49.720;7.296;2023-06-22T07:27:46;22.50;99.90
4399;DHT22;2213;49.720;7.296;2023-06-22T07:30:24;22.60;99.90
4399;DHT22;2213;49.720;7.296;2023-06-22T07:32:55;22.70;99.90
4399;DHT22;2213;49.720;7.296;2023-06-22T07:35:26;22.60;99.90
4399;DHT22;2213;49.720;7.296;2023-06-22T07:37:55;22.70;99.90
4399;DHT22;2213;49.720;7.296;2023-06-22T07:40:25;22.80;99.90
4399;DHT22;2213;49.720;7.296;2023-06-22T07:42:54;22.80;99.90
4399;DHT22;2213;49.720;7.296;2023-06-22T07:45:24;22.80;99.90
4399;DHT22;2213;49.720;7.296;2023-06-22T07:47:53;23.00;99.90
4399;DHT22;2213;49.720;7.296;2023-06-22T07:50:21;22.90;99.90
4399;DHT22;2213;49.720;7.296;2023-06-22T07:52:52;23.00;99.90
4399;DHT22;2213;49.720;7.296;2023-06-22T07:55:21;23.00;99.90
4399;DHT22;2213;49.720;7.296;2023-06-22T07:57:49;23.00;99.90
4399;DHT22;2213;49.720;7.296;2023-06-22T08:00:19;23.00;99.90
4399;DHT22;2213;49.720;7.296;2023-06-22T08:02:48;23.00;99.90
4399;DHT22;2213;49.720;7.296;2023-06-22T08:05:17;23.10;99.90
4399;DHT22;2213;49.720;7.296;2023-06-22T08:07:49;23.30;99.90
4399;DHT22;2213;49.720;7.296;2023-06-22T08:10:20;23.30;99.90
4399;DHT22;2213;49.720;7.296;2023-06-22T08:12:48;23.30;99.90
4399;DHT22;2213;49.720;7.296;2023-06-22T08:15:19;23.40;99.90
4399;DHT22;2213;49.720;7.296;2023-06-22T08:17:49;23.40;99.90
4399;DHT22;2213;49.720;7.296;2023-06-22T08:20:20;23.50;99.90
4399;DHT22;2213;49.720;7.296;2023-06-22T08:22:48;23.50;99.90
4399;DHT22;2213;49.720;7.296;2023-06-22T08:25:17;23.50;99.90
4399;DHT22;2213;49.720;7.296;2023-06-22T08:27:47;23.60;99.90
4399;DHT22;2213;49.720;7.296;2023-06-22T08:30:16;23.60;99.90
4399;DHT22;2213;49.720;7.296;2023-06-22T08:32:45;23.60;99.90
4399;DHT22;2213;49.720;7.296;2023-06-22T08:35:14;23.70;99.90
4399;DHT22;2213;49.720;7.296;2023-06-22T08:37:43;23.80;99.90
4399;DHT22;2213;49.720;7.296;2023-06-22T08:40:17;23.80;99.90
4399;DHT22;2213;49.720;7.296;2023-06-22T08:42:48;23.90;99.90
4399;DHT22;2213;49.720;7.296;2023-06-22T08:45:17;23.90;99.90
4399;DHT22;2213;49.720;7.296;2023-06-22T08:47:46;23.90;99.90
4399;DHT22;2213;49.720;7.296;2023-06-22T08:50:15;24.00;99.90
4399;DHT22;2213;49.720;7.296;2023-06-22T08:52:43;24.00;99.90
4399;DHT22;2213;49.720;7.296;2023-06-22T08:55:12;24.10;99.90
4399;DHT22;2213;49.720;7.296;2023-06-22T08:57:41;24.20;99.90
4399;DHT22;2213;49.720;7.296;2023-06-22T09:00:13;24.20;99.90
4399;DHT22;2213;49.720;7.296;2023-06-22T09:02:47;24.30;99.90
4399;DHT22;2213;49.720;7.296;2023-06-22T09:05:16;24.30;99.90
4399;DHT22;2213;49.720;7.296;2023-06-22T09:07:45;24.40;99.90
4399;DHT22;2213;49.720;7.296;2023-06-22T09:10:14;24.40;99.90
4399;DHT22;2213;49.720;7.296;2023-06-22T09:12:43;24.60;99.90
4399;DHT22;2213;49.720;7.296;2023-06-22T09:15:13;24.60;99.90
4399;DHT22;2213;49.720;7.296;2023-06-22T09:17:44;24.70;99.90
4399;DHT22;2213;49.720;7.296;2023-06-22T09:20:15;24.80;99.90
4399;DHT22;2213;49.720;7.296;2023-06-22T09:22:44;24.90;99.90
4399;DHT22;2213;49.720;7.296;2023-06-22T09:25:13;25.00;99.90
4399;DHT22;2213;49.720;7.296;2023-06-22T09:27:43;25.10;99.90
4399;DHT22;2213;49.720;7.296;2023-06-22T09:30:14;25.10;99.90
4399;DHT22;2213;49.720;7.296;2023-06-22T09:32:44;25.20;99.90
4399;DHT22;2213;49.720;7.296;2023-06-22T09:35:13;25.20;99.90
4399;DHT22;2213;49.720;7.296;2023-06-22T09:37:42;25.30;99.90
4399;DHT22;2213;49.720;7.296;2023-06-22T09:40:12;25.20;99.90
4399;DHT22;2213;49.720;7.296;2023-06-22T09:42:44;25.30;99.90
4399;DHT22;2213;49.720;7.296;2023-06-22T09:45:14;25.30;99.90
4399;DHT22;2213;49.720;7.296;2023-06-22T09:47:43;25.40;99.90
4399;DHT22;2213;49.720;7.296;2023-06-22T09:50:12;25.40;99.90
4399;DHT22;2213;49.720;7.296;2023-06-22T09:52:40;25.40;99.90
4399;DHT22;2213;49.720;7.296;2023-06-22T09:55:14;25.40;99.90
4399;DHT22;2213;49.720;7.296;2023-06-22T09:57:44;25.50;99.90
4399;DHT22;2213;49.720;7.296;2023-06-22T10:00:15;25.60;99.90
4399;DHT22;2213;49.720;7.296;2023-06-22T10:02:46;25.60;99.90
4399;DHT22;2213;49.720;7.296;2023-06-22T10:05:15;25.70;99.90
4399;DHT22;2213;49.720;7.296;2023-06-22T10:07:44;25.70;99.90
4399;DHT22;2213;49.720;7.296;2023-06-22T10:10:13;25.70;99.90
4399;DHT22;2213;49.720;7.296;2023-06-22T10:12:45;25.80;99.90
4399;DHT22;2213;49.720;7.296;2023-06-22T10:15:16;25.90;99.90
4399;DHT22;2213;49.720;7.296;2023-06-22T10:17:45;26.00;99.90
4399;DHT22;2213;49.720;7.296;2023-06-22T10:20:14;26.00;99.90
4399;DHT22;2213;49.720;7.296;2023-06-22T10:22:45;26.20;99.90
4399;DHT22;2213;49.720;7.296;2023-06-22T10:25:15;26.10;99.90
4399;DHT22;2213;49.720;7.296;2023-06-22T10:27:43;26.20;99.90
4399;DHT22;2213;49.720;7.296;2023-06-22T10:30:13;26.10;99.90
4399;DHT22;2213;49.720;7.296;2023-06-22T10:32:44;26.10;99.90
4399;DHT22;2213;49.720;7.296;2023-06-22T10:35:13;26.20;99.90
4399;DHT22;2213;49.720;7.296;2023-06-22T10:37:43;26.20;99.90
4399;DHT22;2213;49.720;7.296;2023-06-22T10:40:14;26.20;99.90
4399;DHT22;2213;49.720;7.296;2023-06-22T10:42:45;26.20;99.90
4399;DHT22;2213;49.720;7.296;2023-06-22T10:45:16;26.30;99.90
4399;DHT22;2213;49.720;7.296;2023-06-22T10:47:44;26.20;99.90
4399;DHT22;2213;49.720;7.296;2023-06-22T10:50:13;26.30;99.90
4399;DHT22;2213;49.720;7.296;2023-06-22T10:52:43;26.30;99.90
4399;DHT22;2213;49.720;7.296;2023-06-22T10:55:11;26.30;99.90
4399;DHT22;2213;49.720;7.296;2023-06-22T10:57:40;26.30;99.90
4399;DHT22;2213;49.720;7.296;2023-06-22T11:00:12;26.40;99.90
4399;DHT22;2213;49.720;7.296;2023-06-22T11:02:43;26.40;99.90
4399;DHT22;2213;49.720;7.296;2023-06-22T11:05:12;26.50;99.90
4399;DHT22;2213;49.720;7.296;2023-06-22T11:07:42;26.60;99.90
4399;DHT22;2213;49.720;7.296;2023-06-22T11:10:13;26.70;99.90
4399;DHT22;2213;49.720;7.296;2023-06-22T11:12:41;26.70;99.90
4399;DHT22;2213;49.720;7.296;2023-06-22T11:15:10;26.80;99.90
4399;DHT22;2213;49.720;7.296;2023-06-22T11:17:39;27.00;99.90
4399;DHT22;2213;49.720;7.296;2023-06-22T11:20:11;27.10;99.90
4399;DHT22;2213;49.720;7.296;2023-06-22T11:22:40;27.10;99.90
4399;DHT22;2213;49.720;7.296;2023-06-22T11:25:10;27.10;99.90
4399;DHT22;2213;49.720;7.296;2023-06-22T11:27:40;27.10;99.90
4399;DHT22;2213;49.720;7.296;2023-06-22T11:30:09;27.20;99.90
4399;DHT22;2213;49.720;7.296;2023-06-22T11:32:38;27.20;99.90
4399;DHT22;2213;49.720;7.296;2023-06-22T11:35:07;27.30;99.90
4399;DHT22;2213;49.720;7.296;2023-06-22T11:37:37;27.30;99.90
4399;DHT22;2213;49.720;7.296;2023-06-22T11:40:07;27.40;99.90
4399;DHT22;2213;49.720;7.296;2023-06-22T11:42:37;27.40;99.90
4399;DHT22;2213;49.720;7.296;2023-06-22T11:45:06;27.40;99.90
4399;DHT22;2213;49.720;7.296;2023-06-22T11:47:35;27.30;99.90
4399;DHT22;2213;49.720;7.296;2023-06-22T11:50:05;27.30;99.90
4399;DHT22;2213;49.720;7.296;2023-06-22T11:52:36;27.40;99.90
4399;DHT22;2213;49.720;7.296;2023-06-22T11:55:06;27.30;99.90
4399;DHT22;2213;49.720;7.296;2023-06-22T11:57:37;27.40;99.90
4399;DHT22;2213;49.720;7.296;2023-06-22T12:00:07;27.50;99.90
4399;DHT22;2213;49.720;7.296;2023-06-22T12:02:44;27.50;99.90
4399;DHT22;2213;49.720;7.296;2023-06-22T12:05:14;27.70;99.90
4399;DHT22;2213;49.720;7.296;2023-06-22T12:07:44;27.80;99.90
4399;DHT22;2213;49.720;7.296;2023-06-22T12:10:12;27.90;99.90
4399;DHT22;2213;49.720;7.296;2023-06-22T12:12:41;28.00;99.90
4399;DHT22;2213;49.720;7.296;2023-06-22T12:15:10;28.10;99.90
4399;DHT22;2213;49.720;7.296;2023-06-22T12:17:39;28.20;99.90
4399;DHT22;2213;49.720;7.296;2023-06-22T12:20:10;28.30;99.90
4399;DHT22;2213;49.720;7.296;2023-06-22T12:22:39;28.30;99.90
4399;DHT22;2213;49.720;7.296;2023-06-22T12:25:11;28.40;99.90
4399;DHT22;2213;49.720;7.296;2023-06-22T12:27:39;28.50;99.30
4399;DHT22;2213;49.720;7.296;2023-06-22T12:30:08;28.60;98.90
4399;DHT22;2213;49.720;7.296;2023-06-22T12:32:38;28.60;98.40
4399;DHT22;2213;49.720;7.296;2023-06-22T12:35:07;28.60;99.50
4399;DHT22;2213;49.720;7.296;2023-06-22T12:37:41;28.60;98.20
4399;DHT22;2213;49.720;7.296;2023-06-22T12:40:12;28.60;98.80
4399;DHT22;2213;49.720;7.296;2023-06-22T12:42:41;28.70;99.10
4399;DHT22;2213;49.720;7.296;2023-06-22T12:45:10;28.70;98.00
4399;DHT22;2213;49.720;7.296;2023-06-22T12:47:39;28.80;98.70
4399;DHT22;2213;49.720;7.296;2023-06-22T12:50:09;28.80;98.80
4399;DHT22;2213;49.720;7.296;2023-06-22T12:52:40;29.00;98.10
4399;DHT22;2213;49.720;7.296;2023-06-22T12:55:11;29.00;98.00
4399;DHT22;2213;49.720;7.296;2023-06-22T12:57:40;29.00;97.10
4399;DHT22;2213;49.720;7.296;2023-06-22T13:00:10;29.00;97.90
4399;DHT22;2213;49.720;7.296;2023-06-22T13:02:40;29.00;97.40
4399;DHT22;2213;49.720;7.296;2023-06-22T13:05:09;29.10;97.10
4399;DHT22;2213;49.720;7.296;2023-06-22T13:07:38;29.10;96.00
4399;DHT22;2213;49.720;7.296;2023-06-22T13:10:07;29.10;96.20
4399;DHT22;2213;49.720;7.296;2023-06-22T13:12:38;29.10;96.40
4399;DHT22;2213;49.720;7.296;2023-06-22T13:15:07;29.10;96.90
4399;DHT22;2213;49.720;7.296;2023-06-22T13:17:36;29.00;96.90
4399;DHT22;2213;49.720;7.296;2023-06-22T13:20:06;29.00;97.00
4399;DHT22;2213;49.720;7.296;2023-06-22T13:22:36;29.00;99.40
4399;DHT22;2213;49.720;7.296;2023-06-22T13:25:09;28.90;99.00
4399;DHT22;2213;49.720;7.296;2023-06-22T13:27:41;28.80;99.90
4399;DHT22;2213;49.720;7.296;2023-06-22T13:30:10;28.50;99.90
4399;DHT22;2213;49.720;7.296;2023-06-22T13:32:41;28.30;99.90
4399;DHT22;2213;49.720;7.296;2023-06-22T13:35:10;28.30;99.90
4399;DHT22;2213;49.720;7.296;2023-06-22T13:37:39;28.20;99.90
4399;DHT22;2213;49.720;7.296;2023-06-22T13:40:08;28.10;99.90
4399;DHT22;2213;49.720;7.296;2023-06-22T13:42:38;28.00;99.90
4399;DHT22;2213;49.720;7.296;2023-06-22T13:45:09;28.10;99.90
4399;DHT22;2213;49.720;7.296;2023-06-22T13:47:39;28.10;99.90
4399;DHT22;2213;49.720;7.296;2023-06-22T13:50:09;28.10;99.90
4399;DHT22;2213;49.720;7.296;2023-06-22T13:52:39;27.90;99.90
4399;DHT22;2213;49.720;7.296;2023-06-22T13:55:10;27.90;99.90
4399;DHT22;2213;49.720;7.296;2023-06-22T13:57:41;27.80;99.90
4399;DHT22;2213;49.720;7.296;2023-06-22T14:00:13;27.70;99.90
4399;DHT22;2213;49.720;7.296;2023-06-22T14:02:42;27.70;99.90
4399;DHT22;2213;49.720;7.296;2023-06-22T14:05:10;27.70;99.90
4399;DHT22;2213;49.720;7.296;2023-06-22T14:07:40;27.70;99.90
4399;DHT22;2213;49.720;7.296;2023-06-22T14:10:09;27.70;99.90
4399;DHT22;2213;49.720;7.296;2023-06-22T14:12:38;27.60;99.90
4399;DHT22;2213;49.720;7.296;2023-06-22T14:15:07;27.60;99.90
4399;DHT22;2213;49.720;7.296;2023-06-22T14:17:37;27.50;99.90
4399;DHT22;2213;49.720;7.296;2023-06-22T14:20:07;27.50;99.90
4399;DHT22;2213;49.720;7.296;2023-06-22T14:22:36;27.40;99.90
4399;DHT22;2213;49.720;7.296;2023-06-22T14:25:08;27.20;99.90
4399;DHT22;2213;49.720;7.296;2023-06-22T14:27:37;27.20;99.90
4399;DHT22;2213;49.720;7.296;2023-06-22T14:30:07;27.00;99.90
4399;DHT22;2213;49.720;7.296;2023-06-22T14:32:37;27.00;99.90
4399;DHT22;2213;49.720;7.296;2023-06-22T14:35:07;26.90;99.90
4399;DHT22;2213;49.720;7.296;2023-06-22T14:37:37;26.90;99.90
4399;DHT22;2213;49.720;7.296;2023-06-22T14:40:06;26.90;99.90
4399;DHT22;2213;49.720;7.296;2023-06-22T14:42:36;26.90;99.70
4399;DHT22;2213;49.720;7.296;2023-06-22T14:45:05;27.00;99.70
4399;DHT22;2213;49.720;7.296;2023-06-22T14:47:35;27.00;99.80
4399;DHT22;2213;49.720;7.296;2023-06-22T14:50:05;27.10;99.90
4399;DHT22;2213;49.720;7.296;2023-06-22T14:52:35;27.20;99.90
4399;DHT22;2213;49.720;7.296;2023-06-22T14:55:07;27.30;99.30
4399;DHT22;2213;49.720;7.296;2023-06-22T14:57:36;27.50;99.10
4399;DHT22;2213;49.720;7.296;2023-06-22T15:00:06;27.60;98.50
4399;DHT22;2213;49.720;7.296;2023-06-22T15:02:36;27.80;97.90
4399;DHT22;2213;49.720;7.296;2023-06-22T15:05:07;27.90;97.70
4399;DHT22;2213;49.720;7.296;2023-06-22T15:07:36;27.90;97.70
4399;DHT22;2213;49.720;7.296;2023-06-22T15:10:05;28.10;97.60
4399;DHT22;2213;49.720;7.296;2023-06-22T15:12:35;28.20;95.80
4399;DHT22;2213;49.720;7.296;2023-06-22T15:15:06;28.20;94.40
4399;DHT22;2213;49.720;7.296;2023-06-22T15:17:36;28.20;94.40
4399;DHT22;2213;49.720;7.296;2023-06-22T15:20:07;28.30;94.10
4399;DHT22;2213;49.720;7.296;2023-06-22T15:22:38;28.40;93.80
4399;DHT22;2213;49.720;7.296;2023-06-22T15:25:07;28.60;93.40
4399;DHT22;2213;49.720;7.296;2023-06-22T15:27:37;28.60;92.70
4399;DHT22;2213;49.720;7.296;2023-06-22T15:30:07;28.80;93.10
4399;DHT22;2213;49.720;7.296;2023-06-22T15:32:36;28.90;91.80
4399;DHT22;2213;49.720;7.296;2023-06-22T15:35:06;29.10;91.40
4399;DHT22;2213;49.720;7.296;2023-06-22T15:37:35;29.20;91.80
4399;DHT22;2213;49.720;7.296;2023-06-22T15:40:05;29.30;91.40
4399;DHT22;2213;49.720;7.296;2023-06-22T15:42:35;29.30;90.90
4399;DHT22;2213;49.720;7.296;2023-06-22T15:45:04;29.50;91.10
4399;DHT22;2213;49.720;7.296;2023-06-22T15:47:34;29.50;91.70
4399;DHT22;2213;49.720;7.296;2023-06-22T15:50:07;29.50;91.60
4399;DHT22;2213;49.720;7.296;2023-06-22T15:52:39;29.50;91.40
4399;DHT22;2213;49.720;7.296;2023-06-22T15:55:08;29.40;91.70
4399;DHT22;2213;49.720;7.296;2023-06-22T15:57:37;29.40;91.70
4399;DHT22;2213;49.720;7.296;2023-06-22T16:00:07;29.40;92.30
4399;DHT22;2213;49.720;7.296;2023-06-22T16:02:45;29.30;92.30
4399;DHT22;2213;49.720;7.296;2023-06-22T16:05:16;29.30;92.30
4399;DHT22;2213;49.720;7.296;2023-06-22T16:07:44;29.20;92.70
4399;DHT22;2213;49.720;7.296;2023-06-22T16:10:13;29.20;92.60
4399;DHT22;2213;49.720;7.296;2023-06-22T16:12:43;29.20;93.00
4399;DHT22;2213;49.720;7.296;2023-06-22T16:15:12;29.10;92.70
4399;DHT22;2213;49.720;7.296;2023-06-22T16:17:42;29.00;93.10
4399;DHT22;2213;49.720;7.296;2023-06-22T16:20:13;29.00;93.50